createdAt,value
2022-11-05T00:02:28.959Z,100.00
2022-11-05T00:06:49.703Z,100.00
2022-11-05T00:10:51.840Z,100.00
2022-11-05T00:15:12.346Z,100.00
2022-11-05T00:19:15.404Z,100.00
2022-11-05T00:23:36.216Z,100.00
2022-11-05T00:27:38.294Z,100.00
2022-11-05T00:31:40.428Z,100.00
2022-11-05T00:35:43.083Z,100.00
2022-11-05T00:39:45.057Z,100.00
2022-11-05T00:44:06.152Z,100.00
2022-11-05T00:48:27.155Z,100.00
2022-11-05T00:52:47.902Z,100.00
2022-11-05T00:56:50.101Z,100.00
2022-11-05T01:00:57.733Z,100.00
2022-11-05T01:04:59.679Z,100.00
2022-11-05T01:09:02.372Z,100.00
2022-11-05T01:13:08.772Z,100.00
2022-11-05T01:17:14.343Z,100.00
2022-11-05T01:21:17.066Z,100.00
2022-11-05T01:25:19.950Z,100.00
2022-11-05T01:29:22.154Z,100.00
2022-11-05T01:33:24.744Z,100.00
2022-11-05T01:37:26.720Z,100.00
2022-11-05T01:41:28.700Z,100.00
2022-11-05T01:45:30.899Z,100.00
2022-11-05T01:49:34.664Z,100.00
2022-11-05T01:53:40.949Z,100.00
2022-11-05T01:57:43.221Z,100.00
2022-11-05T02:01:45.650Z,100.00
2022-11-05T02:05:50.095Z,100.00
2022-11-05T02:10:11.360Z,100.00
2022-11-05T02:14:13.275Z,100.00
2022-11-05T02:18:51.646Z,100.00
2022-11-05T02:23:23.057Z,100.00
2022-11-05T02:27:58.990Z,100.00
2022-11-05T02:32:35.543Z,100.00
2022-11-05T02:37:01.186Z,100.00
2022-11-05T02:41:32.952Z,100.00
2022-11-05T02:45:48.743Z,100.00
2022-11-05T02:50:14.520Z,100.00
2022-11-05T02:54:31.982Z,100.00
2022-11-05T02:58:35.697Z,100.00
2022-11-05T03:02:38.151Z,100.00
2022-11-05T03:06:48.690Z,100.00
2022-11-05T03:11:13.302Z,100.00
2022-11-05T03:15:33.853Z,100.00
2022-11-05T03:19:50.193Z,100.00
2022-11-05T03:23:59.159Z,100.00
2022-11-05T03:28:06.783Z,100.00
2022-11-05T03:32:11.445Z,100.00
2022-11-05T03:36:23.480Z,100.00
2022-11-05T03:40:26.532Z,100.00
2022-11-05T03:44:33.136Z,100.00
2022-11-05T03:48:41.519Z,100.00
2022-11-05T03:52:54.891Z,100.00
2022-11-05T03:56:56.825Z,100.00
2022-11-05T04:01:02.295Z,100.00
2022-11-05T04:05:05.408Z,100.00
2022-11-05T04:09:26.269Z,100.00
2022-11-05T04:13:28.609Z,100.00
2022-11-05T04:17:30.572Z,100.00
2022-11-05T04:21:51.041Z,100.00
2022-11-05T04:25:53.064Z,100.00
2022-11-05T04:30:13.715Z,100.00
2022-11-05T04:34:16.644Z,100.00
2022-11-05T04:38:20.276Z,100.00
2022-11-05T04:42:22.572Z,100.00
2022-11-05T04:46:25.053Z,100.00
2022-11-05T04:50:27.112Z,100.00
2022-11-05T04:54:29.149Z,100.00
2022-11-05T04:58:31.071Z,100.00
2022-11-05T05:02:33.958Z,100.00
2022-11-05T05:06:36.461Z,100.00
2022-11-05T05:10:38.439Z,100.00
2022-11-05T05:14:40.453Z,100.00
2022-11-05T05:18:46.209Z,100.00
2022-11-05T05:22:55.205Z,100.00
2022-11-05T05:26:57.294Z,100.00
2022-11-05T05:31:00.791Z,100.00
2022-11-05T05:35:03.465Z,100.00
2022-11-05T05:39:07.402Z,100.00
2022-11-05T05:43:09.678Z,100.00
2022-11-05T05:47:11.889Z,100.00
2022-11-05T05:51:13.887Z,100.00
2022-11-05T05:55:16.270Z,100.00
2022-11-05T05:59:18.226Z,100.00
2022-11-05T06:03:20.828Z,100.00
2022-11-05T06:07:23.154Z,100.00
2022-11-05T06:11:25.349Z,100.00
2022-11-05T06:20:11.950Z,100.00
2022-11-05T06:24:13.942Z,100.00
2022-11-05T06:28:15.967Z,100.00
2022-11-05T06:32:17.893Z,100.00
2022-11-05T06:36:20.800Z,100.00
2022-11-05T06:40:22.833Z,100.00
2022-11-05T06:44:24.769Z,100.00
2022-11-05T06:48:26.756Z,100.00
2022-11-05T06:52:31.277Z,100.00
2022-11-05T06:56:33.235Z,100.00
2022-11-05T07:00:35.300Z,100.00
2022-11-05T07:04:37.539Z,100.00
2022-11-05T07:08:39.626Z,100.00
2022-11-05T07:12:41.915Z,100.00
2022-11-05T07:16:44.101Z,100.00
2022-11-05T07:20:46.101Z,100.00
2022-11-05T07:24:49.494Z,100.00
2022-11-05T07:28:51.461Z,100.00
2022-11-05T07:32:53.700Z,100.00
2022-11-05T07:36:57.579Z,100.00
2022-11-05T07:41:01.833Z,100.00
2022-11-05T07:45:06.192Z,100.00
2022-11-05T07:49:08.390Z,100.00
2022-11-05T07:53:13.505Z,100.00
2022-11-05T07:57:16.336Z,100.00
2022-11-05T08:01:18.556Z,100.00
2022-11-05T08:05:20.813Z,100.00
2022-11-05T08:09:22.949Z,100.00
2022-11-05T08:13:25.235Z,100.00
2022-11-05T08:17:27.314Z,100.00
2022-11-05T08:21:29.264Z,100.00
2022-11-05T08:25:32.031Z,100.00
2022-11-05T08:29:34.009Z,100.00
2022-11-05T08:33:35.977Z,100.00
2022-11-05T08:37:37.968Z,100.00
2022-11-05T08:41:40.682Z,100.00
2022-11-05T08:45:42.970Z,100.00
2022-11-05T08:49:45.016Z,100.00
2022-11-05T08:53:47.040Z,100.00
2022-11-05T08:57:54.678Z,100.00
2022-11-05T09:01:56.862Z,100.00
2022-11-05T09:05:59.363Z,100.00
2022-11-05T09:10:02.053Z,100.00
2022-11-05T09:14:04.633Z,100.00
2022-11-05T09:18:07.089Z,100.00
2022-11-05T09:22:12.669Z,100.00
2022-11-05T09:26:15.025Z,100.00
2022-11-05T09:30:17.047Z,100.00
2022-11-05T09:34:19.055Z,100.00
2022-11-05T09:38:21.106Z,100.00
2022-11-05T09:42:28.846Z,100.00
2022-11-05T09:46:43.836Z,100.00
2022-11-05T09:50:47.623Z,100.00
2022-11-05T09:54:50.502Z,100.00
2022-11-05T09:58:58.284Z,100.00
2022-11-05T10:03:06.327Z,100.00
2022-11-05T10:07:15.925Z,100.00
2022-11-05T10:11:25.171Z,100.00
2022-11-05T10:15:37.389Z,100.00
2022-11-05T10:19:54.688Z,100.00
2022-11-05T10:23:57.314Z,100.00
2022-11-05T10:28:00.374Z,100.00
2022-11-05T10:32:05.868Z,100.00
2022-11-05T10:36:34.979Z,100.00
2022-11-05T10:41:01.703Z,100.00
2022-11-05T10:45:12.657Z,100.00
2022-11-05T10:49:36.294Z,100.00
2022-11-05T10:53:39.713Z,100.00
2022-11-05T10:57:42.380Z,100.00
2022-11-05T11:01:44.665Z,100.00
2022-11-05T11:05:46.857Z,100.00
2022-11-05T11:09:50.142Z,100.00
2022-11-05T11:13:59.595Z,100.00
2022-11-05T11:18:33.526Z,99.75
2022-11-05T11:22:36.856Z,100.00
2022-11-05T11:26:40.629Z,100.00
2022-11-05T11:30:51.886Z,100.00
2022-11-05T11:34:55.295Z,100.00
2022-11-05T11:39:02.437Z,100.00
2022-11-05T11:43:14.489Z,100.00
2022-11-05T11:47:19.792Z,100.00
2022-11-05T11:51:32.614Z,100.00
2022-11-05T11:55:34.588Z,100.00
2022-11-05T12:00:06.703Z,100.00
2022-11-05T12:04:19.762Z,100.00
2022-11-05T12:08:35.674Z,100.00
2022-11-05T12:13:02.763Z,100.00
2022-11-05T12:17:25.955Z,100.00
2022-11-05T12:21:56.169Z,100.00
2022-11-05T12:26:33.096Z,100.00
2022-11-05T12:31:07.451Z,98.21
2022-11-05T12:35:48.235Z,95.26
2022-11-05T12:40:08.496Z,97.22
2022-11-05T12:44:24.147Z,98.73
2022-11-05T12:49:04.678Z,97.90
2022-11-05T12:53:47.171Z,99.17
2022-11-05T12:57:55.266Z,98.79
2022-11-05T13:02:38.675Z,98.51
2022-11-05T13:06:47.052Z,96.38
2022-11-05T13:10:55.706Z,94.34
2022-11-05T13:15:13.934Z,88.78
2022-11-05T13:19:16.482Z,88.81
2022-11-05T13:23:21.737Z,90.13
2022-11-05T13:27:38.063Z,91.16
2022-11-05T13:31:52.539Z,90.57
2022-11-05T13:36:28.884Z,92.44
2022-11-05T13:40:46.579Z,95.76
2022-11-05T13:44:57.950Z,95.33
2022-11-05T13:49:21.286Z,93.35
2022-11-05T13:53:35.857Z,93.26
2022-11-05T13:57:37.692Z,86.40
2022-11-05T14:02:01.519Z,83.62
2022-11-05T14:06:07.009Z,82.97
2022-11-05T14:10:46.955Z,78.26
2022-11-05T14:14:59.115Z,82.46
2022-11-05T14:19:19.749Z,77.92
2022-11-05T14:23:24.487Z,83.31
2022-11-05T14:27:29.427Z,80.13
2022-11-05T14:36:21.381Z,82.13
2022-11-05T14:40:26.393Z,83.65
2022-11-05T14:44:30.005Z,86.17
2022-11-05T14:48:41.258Z,85.83
2022-11-05T14:53:04.694Z,84.51
2022-11-05T14:57:06.790Z,86.53
2022-11-05T15:01:30.094Z,83.40
2022-11-05T15:05:34.919Z,86.35
2022-11-05T15:09:41.548Z,86.72
2022-11-05T15:14:05.686Z,86.77
2022-11-05T15:18:28.189Z,87.79
2022-11-05T15:22:34.756Z,90.56
2022-11-05T15:26:46.383Z,92.32
2022-11-05T15:31:16.105Z,90.23
2022-11-05T15:35:28.089Z,89.49
2022-11-05T15:39:38.594Z,92.86
2022-11-05T15:43:47.841Z,92.33
2022-11-05T15:47:50.071Z,93.43
2022-11-05T15:51:52.096Z,93.59
2022-11-05T15:55:58.456Z,93.14
2022-11-05T16:00:05.542Z,94.50
2022-11-05T16:04:29.899Z,94.31
2022-11-05T16:08:32.037Z,95.44
2022-11-05T16:12:36.335Z,95.74
2022-11-05T16:16:38.370Z,96.50
2022-11-05T16:20:40.390Z,97.54
2022-11-05T16:24:43.320Z,99.05
2022-11-05T16:28:50.778Z,100.00
2022-11-05T16:32:53.110Z,100.00
2022-11-05T16:36:57.123Z,100.00
2022-11-05T16:41:00.368Z,100.00
2022-11-05T16:45:02.398Z,100.00
2022-11-05T16:49:04.315Z,100.00
2022-11-05T16:53:06.854Z,100.00
2022-11-05T16:57:39.376Z,100.00
2022-11-05T17:01:43.184Z,100.00
2022-11-05T17:05:45.860Z,100.00
2022-11-05T17:09:48.006Z,100.00
2022-11-05T17:13:51.998Z,100.00
2022-11-05T17:17:55.354Z,100.00
2022-11-05T17:21:57.761Z,100.00
2022-11-05T17:26:06.415Z,100.00
2022-11-05T17:30:10.113Z,100.00
2022-11-05T17:34:12.157Z,100.00
2022-11-05T17:38:14.479Z,100.00
2022-11-05T17:42:16.555Z,99.75
2022-11-05T17:46:20.199Z,100.00
2022-11-05T17:50:22.523Z,100.00
2022-11-05T17:54:24.548Z,100.00
2022-11-05T17:58:26.553Z,100.00
2022-11-05T18:02:29.642Z,100.00
2022-11-05T18:06:32.196Z,100.00
2022-11-05T18:10:36.866Z,100.00
2022-11-05T18:14:39.096Z,100.00
2022-11-05T18:18:41.090Z,100.00
2022-11-05T18:22:44.087Z,100.00
2022-11-05T18:26:46.333Z,100.00
2022-11-05T18:30:48.394Z,100.00
2022-11-05T18:34:50.528Z,100.00
2022-11-05T18:38:53.222Z,100.00
2022-11-05T18:42:55.237Z,100.00
2022-11-05T18:46:58.661Z,100.00
2022-11-05T18:51:02.187Z,100.00
2022-11-05T18:55:04.635Z,100.00
2022-11-05T18:59:35.098Z,100.00
2022-11-05T19:03:28.708Z,100.00
2022-11-05T19:07:30.892Z,100.00
2022-11-05T19:11:33.394Z,100.00
2022-11-05T19:15:35.424Z,100.00
2022-11-05T19:19:37.907Z,100.00
2022-11-05T19:23:39.931Z,100.00
2022-11-05T19:27:43.714Z,100.00
2022-11-05T19:31:45.828Z,100.00
2022-11-05T19:35:47.852Z,100.00
2022-11-05T19:39:49.925Z,100.00
2022-11-05T19:43:54.291Z,100.00
2022-11-05T19:47:56.404Z,100.00
2022-11-05T19:51:58.415Z,100.00
2022-11-05T19:56:08.201Z,100.00
2022-11-05T20:00:10.987Z,100.00
2022-11-05T20:04:13.627Z,100.00
2022-11-05T20:08:15.766Z,100.00
2022-11-05T20:12:18.098Z,100.00
2022-11-05T20:16:27.295Z,100.00
2022-11-05T20:20:29.523Z,100.00
2022-11-05T20:24:31.631Z,100.00
2022-11-05T20:28:35.497Z,100.00
2022-11-05T20:32:37.574Z,100.00
2022-11-05T20:36:40.074Z,100.00
2022-11-05T20:40:42.256Z,100.00
2022-11-05T20:44:44.229Z,100.00
2022-11-05T20:48:46.618Z,100.00
2022-11-05T20:52:49.103Z,100.00
2022-11-05T20:56:51.286Z,100.00
2022-11-05T21:00:55.956Z,100.00
2022-11-05T21:04:58.585Z,100.00
2022-11-05T21:09:01.414Z,100.00
2022-11-05T21:13:03.404Z,100.00
2022-11-05T21:17:07.726Z,100.00
2022-11-05T21:21:13.463Z,100.00
2022-11-05T21:25:15.711Z,100.00
2022-11-05T21:29:18.739Z,100.00
2022-11-05T21:33:20.790Z,100.00
2022-11-05T21:37:22.831Z,100.00
2022-11-05T21:41:25.334Z,100.00
2022-11-05T21:45:27.534Z,100.00
2022-11-05T21:49:29.973Z,100.00
2022-11-05T21:53:50.486Z,100.00
2022-11-05T21:58:11.583Z,100.00
2022-11-05T22:02:19.627Z,100.00
2022-11-05T22:06:21.738Z,100.00
2022-11-05T22:10:23.841Z,100.00
2022-11-05T22:14:26.524Z,100.00
2022-11-05T22:18:28.564Z,100.00
2022-11-05T22:22:30.594Z,100.00
2022-11-05T22:26:32.993Z,100.00
2022-11-05T22:30:36.716Z,100.00
2022-11-05T22:34:39.424Z,100.00
2022-11-05T22:38:41.649Z,100.00
2022-11-05T22:42:44.192Z,100.00
2022-11-05T22:46:46.412Z,100.00
2022-11-05T22:50:48.481Z,100.00
2022-11-05T22:54:50.574Z,100.00
2022-11-05T22:58:52.997Z,100.00
2022-11-05T23:02:55.148Z,100.00
2022-11-05T23:07:15.584Z,100.00
2022-11-05T23:11:41.325Z,100.00
2022-11-05T23:16:01.831Z,100.00
2022-11-05T23:20:24.805Z,100.00
2022-11-05T23:24:27.072Z,100.00
2022-11-05T23:28:29.144Z,100.00
2022-11-05T23:32:32.310Z,100.00
2022-11-05T23:36:52.881Z,100.00
2022-11-05T23:41:13.462Z,100.00
2022-11-05T23:45:34.137Z,100.00
2022-11-05T23:49:36.115Z,100.00
2022-11-05T23:53:40.212Z,100.00
2022-11-05T23:57:42.302Z,100.00
